Time;durP1;ratioP1;P1;durP2;ratioP2;P2;SDS_P1;SDS_P2;PMS_P1;PMS_P2;Temp;Humidity;BMP_temperature;BMP_pressure;BME280_temperature;BME280_humidity;BME280_pressure;Samples;Min_cycle;Max_cycle;Signal;HPM_P1;HPM_P2
2021/11/30 00:01:24;;;;;;;1.65;0.50;;;21.90;31.30;;;;;;5020212;28;20061;-47
2021/11/30 00:03:50;;;;;;;1.02;0.50;;;21.90;31.30;;;;;;5024395;28;20049;-48
2021/11/30 00:06:16;;;;;;;0.73;0.40;;;21.90;31.30;;;;;;5024374;28;20068;-51
2021/11/30 00:08:42;;;;;;;0.82;0.40;;;21.80;31.20;;;;;;5022605;28;20030;-57
2021/11/30 00:11:10;;;;;;;0.68;0.45;;;21.80;31.20;;;;;;5023387;28;20100;-51
2021/11/30 00:13:38;;;;;;;0.80;0.30;;;21.90;31.20;;;;;;5026395;28;20112;-50
2021/11/30 00:16:04;;;;;;;1.70;0.63;;;21.90;31.20;;;;;;5025770;28;20081;-50
2021/11/30 00:18:33;;;;;;;1.17;0.45;;;21.80;31.10;;;;;;5023055;28;20025;-49
2021/11/30 00:21:04;;;;;;;1.30;0.52;;;21.80;31.10;;;;;;5019853;28;20056;-50
2021/11/30 00:23:31;;;;;;;1.50;0.60;;;21.80;31.00;;;;;;5025062;28;20026;-51
2021/11/30 00:25:57;;;;;;;0.93;0.52;;;21.80;31.00;;;;;;5020919;28;20117;-53
2021/11/30 00:28:22;;;;;;;2.05;0.60;;;21.80;31.00;;;;;;5024727;28;20408;-52
2021/11/30 00:30:49;;;;;;;1.17;0.60;;;21.80;31.00;;;;;;5021724;28;20049;-48
2021/11/30 00:33:15;;;;;;;1.60;0.60;;;21.80;31.00;;;;;;5023770;28;20365;-49
2021/11/30 00:35:42;;;;;;;1.33;0.65;;;21.80;31.00;;;;;;5026559;28;20044;-53
2021/11/30 00:38:12;;;;;;;1.08;0.50;;;21.80;31.00;;;;;;5022739;28;20033;-51
2021/11/30 00:40:39;;;;;;;1.55;0.50;;;21.80;31.00;;;;;;5022470;28;20083;-52
2021/11/30 00:43:06;;;;;;;1.77;0.52;;;21.80;31.00;;;;;;5023127;28;20133;-54
2021/11/30 00:45:50;;;;;;;1.65;0.70;;;21.70;31.00;;;;;;5021637;28;20038;-50
2021/11/30 00:48:21;;;;;;;1.13;0.70;;;21.70;31.00;;;;;;5024346;28;20372;-52
2021/11/30 00:50:50;;;;;;;1.77;0.77;;;21.70;31.00;;;;;;5022435;28;20040;-50
2021/11/30 00:53:16;;;;;;;1.70;0.90;;;21.70;31.00;;;;;;5023245;28;21441;-51
2021/11/30 00:55:42;;;;;;;1.30;0.82;;;21.70;31.00;;;;;;5023800;28;20048;-47
2021/11/30 00:58:08;;;;;;;2.03;1.13;;;21.70;31.00;;;;;;5022248;28;20105;-53
2021/11/30 01:00:35;;;;;;;2.00;0.95;;;21.70;31.00;;;;;;5022546;28;20037;-49
2021/11/30 01:03:05;;;;;;;1.70;0.98;;;21.70;31.00;;;;;;5024545;28;20029;-51
2021/11/30 01:05:32;;;;;;;2.05;0.90;;;21.70;31.00;;;;;;5021962;28;20053;-50
2021/11/30 01:07:58;;;;;;;1.65;0.93;;;21.70;31.00;;;;;;5022765;28;20084;-48
2021/11/30 01:10:24;;;;;;;1.65;0.90;;;21.70;31.00;;;;;;5023352;28;20025;-50
2021/11/30 01:12:51;;;;;;;1.75;1.00;;;21.60;30.90;;;;;;5022565;28;20068;-53
2021/11/30 01:15:19;;;;;;;1.88;1.17;;;21.60;31.50;;;;;;5022867;28;20356;-54
2021/11/30 01:17:45;;;;;;;1.45;0.80;;;21.60;30.80;;;;;;5022477;28;20036;-50
2021/11/30 01:20:11;;;;;;;1.42;0.98;;;21.60;30.80;;;;;;5022429;28;20456;-52
2021/11/30 01:22:39;;;;;;;1.70;0.93;;;21.60;30.70;;;;;;5022750;28;20164;-55
2021/11/30 01:25:06;;;;;;;1.90;1.20;;;21.60;30.70;;;;;;5023856;28;20030;-52
2021/11/30 01:27:32;;;;;;;2.15;1.23;;;21.60;30.70;;;;;;5022028;28;20044;-51
2021/11/30 01:29:58;;;;;;;1.98;0.90;;;21.60;30.60;;;;;;5022808;28;20026;-52
2021/11/30 01:32:23;;;;;;;2.03;1.08;;;21.60;30.60;;;;;;5022236;28;20092;-52
2021/11/30 01:34:49;;;;;;;1.50;0.90;;;21.60;30.60;;;;;;5023261;28;20073;-49
2021/11/30 01:37:16;;;;;;;1.38;0.98;;;21.60;30.50;;;;;;5018693;28;20372;-51
2021/11/30 01:39:47;;;;;;;1.80;1.00;;;21.60;30.50;;;;;;5022598;28;20445;-56
2021/11/30 01:42:14;;;;;;;1.70;0.82;;;21.60;30.50;;;;;;5020909;28;20037;-51
2021/11/30 01:49:52;;;;;;;1.08;0.95;;;21.50;30.40;;;;;;5021985;28;20029;-50
2021/11/30 01:52:21;;;;;;;1.35;0.80;;;21.50;30.40;;;;;;5021772;28;20484;-53
2021/11/30 01:54:49;;;;;;;1.00;0.80;;;21.50;30.40;;;;;;5024069;28;20025;-49
2021/11/30 01:57:17;;;;;;;1.33;0.70;;;21.50;30.40;;;;;;5022124;28;20045;-53
2021/11/30 01:59:44;;;;;;;1.67;0.90;;;21.50;30.40;;;;;;5022748;28;20045;-50
2021/11/30 02:02:11;;;;;;;1.50;0.75;;;21.50;30.40;;;;;;5021872;28;20046;-53
2021/11/30 02:04:37;;;;;;;0.93;0.70;;;21.50;30.50;;;;;;5023050;28;20112;-50
2021/11/30 02:07:05;;;;;;;2.10;1.00;;;21.50;30.50;;;;;;5020975;28;20029;-50
2021/11/30 02:09:31;;;;;;;2.15;1.17;;;21.50;30.50;;;;;;5021391;28;20119;-51
2021/11/30 02:11:57;;;;;;;2.08;1.10;;;21.50;30.50;;;;;;5022467;28;20034;-46
2021/11/30 02:14:23;;;;;;;2.28;1.13;;;21.50;30.60;;;;;;5021408;28;20376;-51
2021/11/30 02:16:49;;;;;;;2.03;1.02;;;21.50;30.60;;;;;;5025104;28;20034;-52
2021/11/30 02:19:16;;;;;;;1.92;1.27;;;21.50;30.60;;;;;;5025056;28;20021;-48
2021/11/30 02:21:42;;;;;;;2.67;1.50;;;21.40;30.60;;;;;;5026710;28;20030;-48
2021/11/30 02:24:10;;;;;;;2.15;1.45;;;21.40;30.70;;;;;;5026900;28;20472;-50
2021/11/30 02:26:38;;;;;;;2.88;1.58;;;21.40;30.70;;;;;;5024734;28;20377;-49
2021/11/30 02:29:05;;;;;;;2.78;1.30;;;21.40;30.70;;;;;;5025031;28;20440;-51
2021/11/30 02:31:41;;;;;;;3.75;1.40;;;21.40;30.80;;;;;;5026769;28;20040;-52
2021/11/30 02:34:07;;;;;;;2.70;1.30;;;21.40;30.80;;;;;;5023105;28;20026;-53
2021/11/30 02:39:09;;;;;;;;;;;21.40;30.90;;;;;;5027434;28;20065;-48
2021/11/30 02:41:36;;;;;;;1.60;0.90;;;21.30;30.90;;;;;;5022999;28;19992;-56
2021/11/30 02:44:03;;;;;;;1.63;0.98;;;21.30;31.00;;;;;;5026770;28;20056;-46
2021/11/30 02:46:39;;;;;;;1.88;1.20;;;21.40;31.00;;;;;;5025289;28;20082;-54
2021/11/30 02:49:10;;;;;;;2.47;1.27;;;21.40;31.00;;;;;;5025105;28;20034;-47
2021/11/30 02:51:38;;;;;;;1.80;1.00;;;21.40;31.00;;;;;;5025489;28;20026;-50
2021/11/30 02:54:11;;;;;;;2.00;1.20;;;21.40;31.10;;;;;;5025621;28;20026;-52
2021/11/30 02:56:46;;;;;;;2.33;1.00;;;21.40;31.10;;;;;;5026038;28;20356;-46
2021/11/30 02:59:13;;;;;;;2.42;1.40;;;21.40;31.10;;;;;;5027397;28;20318;-50
2021/11/30 03:01:42;;;;;;;2.60;1.20;;;21.40;31.10;;;;;;5024584;28;20041;-48
2021/11/30 03:04:12;;;;;;;1.98;1.25;;;21.40;31.10;;;;;;5026704;28;20041;-50
2021/11/30 03:06:40;;;;;;;1.05;0.82;;;21.40;31.10;;;;;;5023068;28;20038;-50
2021/11/30 03:09:06;;;;;;;2.15;0.98;;;21.30;31.10;;;;;;5025232;28;20080;-51
2021/11/30 03:11:32;;;;;;;1.83;1.02;;;21.40;31.10;;;;;;5024333;28;20464;-52
2021/11/30 03:13:58;;;;;;;1.77;1.23;;;21.40;31.10;;;;;;5027567;28;20060;-47
2021/11/30 03:16:24;;;;;;;2.33;1.10;;;21.40;31.20;;;;;;5023968;28;20065;-45
2021/11/30 03:18:50;;;;;;;2.17;1.02;;;21.30;31.10;;;;;;5024333;28;20026;-46
2021/11/30 03:21:16;;;;;;;1.60;0.80;;;21.40;31.20;;;;;;5024678;28;20064;-51
2021/11/30 03:23:42;;;;;;;2.92;1.15;;;21.30;31.80;;;;;;5025106;28;20061;-52
2021/11/30 03:26:09;;;;;;;2.78;1.20;;;21.30;31.20;;;;;;5023717;28;20034;-50
2021/11/30 03:28:34;;;;;;;1.45;1.02;;;21.30;31.30;;;;;;5026242;28;20042;-47
2021/11/30 03:31:03;;;;;;;1.58;1.05;;;21.30;31.30;;;;;;5023614;28;20021;-50
2021/11/30 03:36:14;;;;;;;1.27;0.85;;;21.30;31.40;;;;;;5026051;28;20125;-50
2021/11/30 03:38:40;;;;;;;0.73;0.60;;;21.30;31.40;;;;;;5023722;28;20025;-52
2021/11/30 03:41:06;;;;;;;1.83;0.65;;;21.30;31.40;;;;;;5026584;28;20042;-50
2021/11/30 03:43:32;;;;;;;1.00;0.73;;;21.30;31.50;;;;;;5025080;28;20034;-49
2021/11/30 03:45:58;;;;;;;1.00;0.55;;;21.30;31.50;;;;;;5022348;28;20033;-50
2021/11/30 03:48:24;;;;;;;1.10;0.90;;;21.30;31.60;;;;;;5025296;28;20025;-51
2021/11/30 03:50:49;;;;;;;1.20;0.68;;;21.30;31.60;;;;;;5023335;28;20438;-49
2021/11/30 03:53:15;;;;;;;1.58;0.90;;;21.30;31.70;;;;;;5023628;28;20069;-48
2021/11/30 03:55:41;;;;;;;0.98;0.70;;;21.30;31.70;;;;;;5021530;28;20037;-49
2021/11/30 03:58:07;;;;;;;0.88;0.60;;;21.20;31.70;;;;;;5025631;28;20034;-51
2021/11/30 04:00:33;;;;;;;0.52;0.52;;;21.20;31.80;;;;;;5023172;28;20083;-48
2021/11/30 04:02:59;;;;;;;1.38;0.80;;;21.20;31.80;;;;;;5022372;28;20037;-48
2021/11/30 04:05:25;;;;;;;0.68;0.50;;;21.20;31.80;;;;;;5023011;28;20037;-49
2021/11/30 04:07:50;;;;;;;1.05;0.60;;;21.30;31.90;;;;;;5025076;28;20052;-51
2021/11/30 04:10:16;;;;;;;0.93;0.63;;;21.30;32.00;;;;;;5024558;28;20521;-50
2021/11/30 04:12:42;;;;;;;1.20;0.70;;;21.20;32.00;;;;;;5024898;28;20064;-46
2021/11/30 04:15:08;;;;;;;1.23;0.70;;;21.20;32.00;;;;;;5021593;28;20044;-50
2021/11/30 04:17:39;;;;;;;0.45;0.45;;;21.20;32.10;;;;;;5021759;28;20061;-48
2021/11/30 04:20:05;;;;;;;0.60;0.50;;;21.20;32.10;;;;;;5022168;28;20516;-47
2021/11/30 04:22:31;;;;;;;1.02;0.70;;;21.20;32.20;;;;;;5027208;28;20045;-50
2021/11/30 04:24:56;;;;;;;1.70;0.80;;;21.20;32.20;;;;;;5025085;28;20033;-47
2021/11/30 04:27:22;;;;;;;0.90;0.50;;;21.20;32.30;;;;;;5020716;28;20060;-50
2021/11/30 04:29:48;;;;;;;1.15;0.50;;;21.20;32.30;;;;;;5022929;28;20064;-52
2021/11/30 04:32:14;;;;;;;1.00;0.57;;;21.20;32.30;;;;;;5023657;28;20037;-52
2021/11/30 04:34:40;;;;;;;0.98;0.30;;;21.20;32.40;;;;;;5022947;28;20053;-51
2021/11/30 04:37:05;;;;;;;0.80;0.40;;;21.20;32.50;;;;;;5023350;28;20034;-54
2021/11/30 04:39:33;;;;;;;0.50;0.50;;;21.20;32.60;;;;;;5021499;28;20029;-52
2021/11/30 04:41:59;;;;;;;0.38;0.32;;;21.20;32.60;;;;;;5024314;28;20022;-53
2021/11/30 04:44:28;;;;;;;0.52;0.38;;;21.20;32.70;;;;;;5022102;28;20129;-55
2021/11/30 04:46:55;;;;;;;0.20;0.20;;;21.20;32.80;;;;;;5024869;28;20029;-54
2021/11/30 04:52:01;;;;;;;0.63;0.30;;;21.20;33.00;;;;;;5021952;28;20048;-47
2021/11/30 04:54:27;;;;;;;1.15;0.22;;;21.20;33.00;;;;;;5025726;28;20095;-49
2021/11/30 04:56:54;;;;;;;0.45;0.30;;;21.20;33.10;;;;;;5024111;28;20045;-47
2021/11/30 04:59:21;;;;;;;0.40;0.28;;;21.20;33.10;;;;;;5022543;28;20040;-49
2021/11/30 05:01:48;;;;;;;0.40;0.40;;;21.20;33.20;;;;;;5022394;28;20061;-47
2021/11/30 05:04:14;;;;;;;0.30;0.30;;;21.20;33.20;;;;;;5022021;28;20064;-50
2021/11/30 05:06:41;;;;;;;0.10;0.10;;;21.20;33.30;;;;;;5023878;28;20397;-53
2021/11/30 05:09:07;;;;;;;0.40;0.30;;;21.10;33.30;;;;;;5023154;28;20096;-50
2021/11/30 05:11:33;;;;;;;0.43;0.25;;;21.20;33.40;;;;;;5023871;28;20101;-51
2021/11/30 05:14:00;;;;;;;0.20;0.20;;;21.10;33.40;;;;;;5022130;28;20033;-49
2021/11/30 05:16:26;;;;;;;0.43;0.30;;;21.10;33.50;;;;;;5022959;28;20399;-49
2021/11/30 05:18:52;;;;;;;0.47;0.20;;;21.20;33.60;;;;;;5023009;28;20029;-50
2021/11/30 05:21:19;;;;;;;0.40;0.30;;;21.10;33.60;;;;;;5022202;28;20152;-51
2021/11/30 05:23:44;;;;;;;0.52;0.30;;;21.10;33.60;;;;;;5022210;28;21017;-46
2021/11/30 05:26:11;;;;;;;0.30;0.30;;;21.10;33.70;;;;;;5022063;28;20030;-49
2021/11/30 05:28:40;;;;;;;0.20;0.20;;;21.10;33.80;;;;;;5022140;28;20519;-49
2021/11/30 05:31:07;;;;;;;0.20;0.20;;;21.10;33.90;;;;;;5024624;28;20029;-54
2021/11/30 05:33:33;;;;;;;0.28;0.28;;;21.10;33.90;;;;;;5022864;28;20037;-50
2021/11/30 05:36:01;;;;;;;0.15;0.15;;;21.10;34.00;;;;;;5021790;28;20125;-50
2021/11/30 05:38:27;;;;;;;0.10;0.10;;;21.10;34.00;;;;;;5024022;28;20033;-49
2021/11/30 05:40:53;;;;;;;0.10;0.10;;;21.10;34.10;;;;;;5022052;28;20412;-47
2021/11/30 05:43:19;;;;;;;0.30;0.10;;;21.10;34.20;;;;;;5022836;28;20030;-54
2021/11/30 05:45:45;;;;;;;0.17;0.10;;;21.10;34.20;;;;;;5022821;28;20060;-49
2021/11/30 05:48:10;;;;;;;0.35;0.20;;;21.10;34.30;;;;;;5022579;28;20382;-54
2021/11/30 05:50:37;;;;;;;0.40;0.20;;;21.10;34.30;;;;;;5023343;28;20044;-48
2021/11/30 05:53:04;;;;;;;0.20;0.20;;;21.10;34.40;;;;;;5028035;28;20104;-47
2021/11/30 05:55:30;;;;;;;0.17;0.17;;;21.10;34.50;;;;;;5027179;28;20379;-51
2021/11/30 05:57:56;;;;;;;0.15;0.10;;;21.10;34.50;;;;;;5027068;28;20044;-54
2021/11/30 06:00:22;;;;;;;0.20;0.20;;;21.10;34.50;;;;;;5025473;28;20046;-54
2021/11/30 06:02:56;;;;;;;0.20;0.20;;;21.10;34.60;;;;;;5025750;28;20066;-49
2021/11/30 06:05:24;;;;;;;0.13;0.13;;;21.10;34.70;;;;;;5024541;28;20086;-52
2021/11/30 06:07:50;;;;;;;0.20;0.20;;;21.10;34.70;;;;;;5025433;28;20153;-50
2021/11/30 06:10:17;;;;;;;0.13;0.10;;;21.10;34.80;;;;;;5026844;28;20054;-49
2021/11/30 06:12:42;;;;;;;0.22;0.10;;;21.10;34.80;;;;;;5024745;28;20041;-50
2021/11/30 06:15:09;;;;;;;0.57;0.20;;;21.10;34.90;;;;;;5026770;28;20030;-51
2021/11/30 06:17:35;;;;;;;0.10;0.10;;;21.10;35.00;;;;;;5026314;28;20429;-51
2021/11/30 06:20:00;;;;;;;0.20;0.10;;;21.10;35.00;;;;;;5024716;28;20041;-47
2021/11/30 06:22:26;;;;;;;0.10;0.10;;;21.10;35.10;;;;;;5025975;28;20451;-49
2021/11/30 06:24:52;;;;;;;0.13;0.10;;;21.00;35.10;;;;;;5023982;28;20028;-49
2021/11/30 06:27:18;;;;;;;0.20;0.10;;;21.10;35.20;;;;;;5025428;28;20030;-49
2021/11/30 06:29:44;;;;;;;0.10;0.10;;;21.10;35.20;;;;;;5024017;28;20025;-52
2021/11/30 06:32:12;;;;;;;0.13;0.10;;;21.00;35.20;;;;;;5026006;28;20037;-48
2021/11/30 06:34:38;;;;;;;0.10;0.10;;;21.00;35.30;;;;;;5023451;28;20453;-50
2021/11/30 06:37:08;;;;;;;0.35;0.20;;;21.00;35.40;;;;;;5026287;28;20055;-47
2021/11/30 06:39:37;;;;;;;0.08;0.08;;;21.00;35.40;;;;;;5023760;28;20029;-51
2021/11/30 06:42:04;;;;;;;0.10;0.10;;;21.00;35.90;;;;;;5024942;28;20045;-47
2021/11/30 06:44:33;;;;;;;0.25;0.20;;;21.00;36.20;;;;;;5024937;28;20108;-48
2021/11/30 06:46:59;;;;;;;0.20;0.20;;;21.00;35.60;;;;;;5025004;28;20420;-49
2021/11/30 06:49:25;;;;;;;0.30;0.20;;;21.00;35.70;;;;;;5022974;28;20369;-50
2021/11/30 06:51:51;;;;;;;0.30;0.30;;;21.00;35.70;;;;;;5025042;28;20109;-48
2021/11/30 06:54:16;;;;;;;0.10;0.10;;;21.00;35.80;;;;;;5025653;28;20389;-48
2021/11/30 06:56:42;;;;;;;0.10;0.10;;;21.00;35.90;;;;;;5023064;28;20080;-49
2021/11/30 06:59:08;;;;;;;0.10;0.10;;;21.00;35.90;;;;;;5024162;28;20356;-54
2021/11/30 07:01:35;;;;;;;0.17;0.17;;;21.00;36.00;;;;;;5023161;28;20121;-50
2021/11/30 07:04:02;;;;;;;1.05;0.38;;;21.00;36.10;;;;;;5023278;28;20048;-52
2021/11/30 07:09:48;;;;;;;0.23;0.10;;;21.00;36.20;;;;;;4964745;28;20467;-50
2021/11/30 07:12:25;;;;;;;1.23;0.22;;;21.00;36.30;;;;;;4965390;28;20051;-49
2021/11/30 07:14:51;;;;;;;0.10;0.10;;;21.00;36.30;;;;;;5004644;28;20041;-50
2021/11/30 07:17:17;;;;;;;0.35;0.20;;;21.00;36.40;;;;;;5024248;28;20103;-49
2021/11/30 07:19:43;;;;;;;0.10;0.10;;;21.00;36.50;;;;;;5023694;28;20026;-53
2021/11/30 07:22:09;;;;;;;0.10;0.10;;;21.00;36.70;;;;;;5021006;28;20121;-51
2021/11/30 07:24:35;;;;;;;0.20;0.10;;;21.00;36.90;;;;;;5024733;28;20033;-56
2021/11/30 07:27:01;;;;;;;0.10;0.10;;;21.00;37.00;;;;;;5026040;28;20025;-51
2021/11/30 07:29:27;;;;;;;0.93;0.40;;;21.00;37.20;;;;;;5023992;28;20038;-50
2021/11/30 07:31:53;;;;;;;0.28;0.22;;;21.00;37.40;;;;;;5024725;28;20460;-53
2021/11/30 07:34:19;;;;;;;2.58;0.20;;;21.00;37.40;;;;;;5025216;28;20033;-55
2021/11/30 07:36:45;;;;;;;0.57;0.50;;;21.10;37.50;;;;;;5024080;28;20045;-47
2021/11/30 07:39:11;;;;;;;0.38;0.20;;;21.10;37.40;;;;;;5026555;28;20339;-53
2021/11/30 07:41:37;;;;;;;0.45;0.30;;;21.20;37.30;;;;;;5028292;28;20029;-50
2021/11/30 07:44:05;;;;;;;0.43;0.20;;;21.20;37.20;;;;;;5027897;28;20406;-53
2021/11/30 07:46:35;;;;;;;0.30;0.20;;;21.40;37.10;;;;;;5025998;28;20041;-51
2021/11/30 07:49:01;;;;;;;0.40;0.22;;;21.50;37.10;;;;;;5023910;28;20029;-53
2021/11/30 07:51:27;;;;;;;0.55;0.30;;;21.60;37.00;;;;;;5024493;28;20110;-54
2021/11/30 07:53:53;;;;;;;0.63;0.30;;;21.60;37.00;;;;;;5021869;28;20025;-51
2021/11/30 07:56:19;;;;;;;0.50;0.30;;;21.70;37.00;;;;;;5024631;28;20041;-52
2021/11/30 07:58:45;;;;;;;0.70;0.40;;;21.80;37.00;;;;;;5026047;28;20160;-50
2021/11/30 08:01:13;;;;;;;0.50;0.30;;;21.90;37.10;;;;;;5025411;28;20192;-51
2021/11/30 08:03:39;;;;;;;0.57;0.30;;;21.90;37.10;;;;;;5019634;28;20455;-56
2021/11/30 08:06:05;;;;;;;0.80;0.35;;;22.00;37.10;;;;;;5020020;28;20026;-47
2021/11/30 08:08:32;;;;;;;1.85;0.32;;;22.10;37.20;;;;;;5025390;28;20026;-53
2021/11/30 08:10:59;;;;;;;0.70;0.32;;;22.10;37.20;;;;;;5019537;28;20022;-48
2021/11/30 08:13:26;;;;;;;0.52;0.40;;;22.20;37.20;;;;;;5016149;28;20484;-49
2021/11/30 08:15:53;;;;;;;1.98;0.40;;;22.30;37.30;;;;;;5017547;28;20036;-52
2021/11/30 08:18:20;;;;;;;0.40;0.20;;;22.40;37.20;;;;;;5023190;28;20440;-51
2021/11/30 08:20:46;;;;;;;2.05;0.40;;;22.50;37.20;;;;;;5035695;28;20067;-49
2021/11/30 08:23:14;;;;;;;1.08;0.40;;;22.50;37.20;;;;;;5022950;28;20036;-48
2021/11/30 08:25:41;;;;;;;0.95;0.38;;;22.60;37.20;;;;;;5014797;28;20084;-50
2021/11/30 08:28:09;;;;;;;0.50;0.30;;;22.60;37.10;;;;;;5024970;28;20037;-52
2021/11/30 08:30:35;;;;;;;0.43;0.20;;;22.60;37.10;;;;;;5033593;28;20037;-49
2021/11/30 08:33:03;;;;;;;0.70;0.30;;;22.70;37.10;;;;;;5034641;28;20037;-51
2021/11/30 08:35:30;;;;;;;0.50;0.40;;;22.80;37.70;;;;;;5033105;28;20033;-52
2021/11/30 08:37:56;;;;;;;0.52;0.10;;;22.80;37.00;;;;;;5030342;28;21645;-48
2021/11/30 08:40:22;;;;;;;1.17;0.45;;;22.90;37.00;;;;;;5023165;28;20025;-50
2021/11/30 08:42:48;;;;;;;0.50;0.22;;;22.90;37.00;;;;;;5023281;28;20037;-51
2021/11/30 08:45:14;;;;;;;0.50;0.20;;;23.00;37.00;;;;;;5021531;28;20029;-54
2021/11/30 08:47:40;;;;;;;1.00;0.28;;;23.00;37.60;;;;;;5022016;28;20040;-50
2021/11/30 08:50:11;;;;;;;0.20;0.20;;;23.10;37.00;;;;;;5020753;28;20057;-53
2021/11/30 08:52:37;;;;;;;0.22;0.22;;;23.20;37.00;;;;;;5022499;28;20053;-50
2021/11/30 08:55:04;;;;;;;0.45;0.22;;;23.20;37.00;;;;;;5025813;28;20056;-51
2021/11/30 08:57:30;;;;;;;1.05;0.40;;;23.20;36.90;;;;;;5023219;28;20453;-50
2021/11/30 08:59:56;;;;;;;0.52;0.32;;;23.30;37.00;;;;;;5021606;28;20060;-49
2021/11/30 09:02:24;;;;;;;0.50;0.30;;;23.30;36.90;;;;;;5020189;28;20357;-51
2021/11/30 09:04:50;;;;;;;0.68;0.40;;;23.30;36.90;;;;;;5018612;28;20038;-53
2021/11/30 09:07:17;;;;;;;0.40;0.30;;;23.40;36.90;;;;;;5025876;28;20033;-51
2021/11/30 09:09:46;;;;;;;0.75;0.32;;;23.40;36.80;;;;;;5023433;28;20018;-49
2021/11/30 09:12:12;;;;;;;0.52;0.32;;;23.50;36.80;;;;;;5025328;28;20471;-53
2021/11/30 09:14:38;;;;;;;0.68;0.20;;;23.40;36.80;;;;;;5030801;28;20049;-52
2021/11/30 09:17:04;;;;;;;0.30;0.30;;;23.40;36.80;;;;;;5023134;28;20125;-52
2021/11/30 09:19:30;;;;;;;0.52;0.30;;;23.50;36.80;;;;;;5022489;28;20029;-51
2021/11/30 09:21:56;;;;;;;0.43;0.28;;;23.50;36.80;;;;;;5024781;28;20040;-52
2021/11/30 09:24:22;;;;;;;0.35;0.20;;;23.60;36.80;;;;;;5024536;28;20029;-49
2021/11/30 09:26:48;;;;;;;0.35;0.30;;;23.60;36.70;;;;;;5028191;28;20365;-51
2021/11/30 09:29:14;;;;;;;0.88;0.40;;;23.60;36.70;;;;;;5028118;28;20121;-45
2021/11/30 09:31:41;;;;;;;1.67;0.47;;;23.70;36.70;;;;;;5028475;28;20037;-51
2021/11/30 09:34:07;;;;;;;0.88;0.40;;;23.70;36.60;;;;;;5031011;28;20042;-51
2021/11/30 09:36:33;;;;;;;0.50;0.30;;;23.60;36.50;;;;;;5029489;28;20338;-50
2021/11/30 09:39:01;;;;;;;0.50;0.30;;;23.70;36.50;;;;;;5029287;28;20432;-46
2021/11/30 09:41:28;;;;;;;0.70;0.30;;;23.70;36.50;;;;;;5028590;28;20037;-50
2021/11/30 09:43:54;;;;;;;1.15;0.40;;;23.70;36.50;;;;;;5025534;28;20030;-48
2021/11/30 09:46:21;;;;;;;0.73;0.22;;;23.70;36.60;;;;;;5027103;28;20471;-48
2021/11/30 09:48:47;;;;;;;0.90;0.30;;;23.70;36.60;;;;;;5029958;28;20040;-46
2021/11/30 09:51:13;;;;;;;0.38;0.25;;;23.60;36.60;;;;;;5029230;28;20056;-50
2021/11/30 09:53:38;;;;;;;0.50;0.20;;;23.60;36.70;;;;;;5027997;28;20365;-47
2021/11/30 09:56:04;;;;;;;0.45;0.35;;;23.60;36.80;;;;;;5029519;28;20037;-53
2021/11/30 09:58:31;;;;;;;0.50;0.20;;;23.50;36.80;;;;;;5028549;28;20060;-53
2021/11/30 10:00:59;;;;;;;0.82;0.28;;;23.50;36.90;;;;;;5031982;28;20441;-55
2021/11/30 10:03:25;;;;;;;0.50;0.38;;;23.40;37.00;;;;;;5029296;28;20061;-47
2021/11/30 10:05:54;;;;;;;0.45;0.20;;;23.40;37.10;;;;;;5027779;28;20046;-51
2021/11/30 10:08:39;;;;;;;0.32;0.30;;;23.40;37.20;;;;;;5025979;28;20546;-49
2021/11/30 10:11:09;;;;;;;0.30;0.20;;;23.30;37.30;;;;;;5027879;28;20021;-52
2021/11/30 10:13:35;;;;;;;0.60;0.20;;;23.30;37.40;;;;;;5026414;28;20040;-49
2021/11/30 10:16:04;;;;;;;0.35;0.22;;;23.20;37.30;;;;;;5029483;28;20037;-57
2021/11/30 10:18:42;;;;;;;0.10;0.10;;;23.20;37.40;;;;;;5039404;28;20057;-45
2021/11/30 10:21:23;;;;;;;0.55;0.20;;;23.20;37.40;;;;;;5027953;28;20044;-52
2021/11/30 10:23:55;;;;;;;1.70;0.22;;;23.20;37.60;;;;;;5028759;28;20444;-50
2021/11/30 10:26:24;;;;;;;2.03;0.30;;;23.10;37.70;;;;;;5027406;28;20025;-46
2021/11/30 10:28:56;;;;;;;0.30;0.20;;;23.10;37.80;;;;;;5027540;28;20048;-49
2021/11/30 10:31:27;;;;;;;0.47;0.10;;;23.10;37.90;;;;;;5028646;28;20464;-49
2021/11/30 10:33:53;;;;;;;1.15;0.60;;;23.00;38.00;;;;;;5028618;28;20026;-48
2021/11/30 10:36:19;;;;;;;0.75;0.25;;;23.00;38.10;;;;;;5024126;28;20041;-50
2021/11/30 10:38:46;;;;;;;0.35;0.20;;;23.00;38.10;;;;;;5025581;28;20101;-51
2021/11/30 10:41:22;;;;;;;0.10;0.10;;;22.90;38.00;;;;;;5024798;28;20415;-49
2021/11/30 10:44:05;;;;;;;0.20;0.20;;;22.90;38.00;;;;;;5025674;28;20077;-51
2021/11/30 10:46:34;;;;;;;0.20;0.13;;;22.90;38.00;;;;;;5025042;28;20503;-47
2021/11/30 10:49:01;;;;;;;0.35;0.20;;;22.90;38.00;;;;;;5023237;28;20050;-53
2021/11/30 10:51:30;;;;;;;0.15;0.13;;;22.90;38.00;;;;;;5025769;28;20060;-50
2021/11/30 10:53:59;;;;;;;0.32;0.10;;;22.90;37.90;;;;;;5024480;28;20057;-52
2021/11/30 10:56:26;;;;;;;1.77;0.30;;;22.90;37.90;;;;;;5025445;28;20069;-50
2021/11/30 10:58:56;;;;;;;0.40;0.20;;;22.90;37.90;;;;;;5024198;28;20033;-47
2021/11/30 11:01:24;;;;;;;0.38;0.30;;;22.90;37.90;;;;;;5026403;28;20412;-47
2021/11/30 11:04:12;;;;;;;0.73;0.20;;;22.90;37.90;;;;;;5024478;28;20034;-48
2021/11/30 11:06:39;;;;;;;0.22;0.10;;;22.90;37.90;;;;;;5023074;28;20109;-51
2021/11/30 11:09:10;;;;;;;0.95;0.20;;;22.90;38.00;;;;;;5018711;28;20041;-50
2021/11/30 11:11:43;;;;;;;0.32;0.30;;;22.90;37.90;;;;;;5017295;28;20038;-47
2021/11/30 11:14:21;;;;;;;0.63;0.30;;;22.80;37.90;;;;;;5018505;28;20072;-56
2021/11/30 11:17:03;;;;;;;1.27;0.20;;;22.80;37.90;;;;;;5019980;28;20080;-47
2021/11/30 11:19:40;;;;;;;0.68;0.22;;;22.80;37.90;;;;;;5026157;28;20033;-49
2021/11/30 11:22:15;;;;;;;0.85;0.22;;;22.80;37.90;;;;;;5016833;28;20029;-47
2021/11/30 11:24:43;;;;;;;0.30;0.20;;;22.80;38.00;;;;;;5020290;28;20378;-53
2021/11/30 11:27:12;;;;;;;0.43;0.30;;;22.80;38.10;;;;;;5023593;28;20406;-50
2021/11/30 11:29:42;;;;;;;0.88;0.30;;;22.80;38.10;;;;;;5023570;28;20037;-48
2021/11/30 11:32:08;;;;;;;1.00;0.30;;;22.70;38.10;;;;;;5021336;28;20053;-48
2021/11/30 11:34:36;;;;;;;0.82;0.20;;;22.70;38.30;;;;;;5026578;28;20356;-53
2021/11/30 11:37:04;;;;;;;2.10;0.30;;;22.70;38.40;;;;;;5023425;28;20064;-48
2021/11/30 11:39:31;;;;;;;0.73;0.22;;;22.70;38.40;;;;;;5023325;28;20187;-53
2021/11/30 11:42:02;;;;;;;0.50;0.20;;;22.70;38.50;;;;;;5023153;28;20385;-50
2021/11/30 11:44:28;;;;;;;0.28;0.20;;;22.70;38.50;;;;;;5027736;28;20029;-48
2021/11/30 11:47:00;;;;;;;0.57;0.30;;;22.70;38.50;;;;;;5020567;28;20022;-55
2021/11/30 11:49:27;;;;;;;0.68;0.20;;;22.70;38.50;;;;;;5021368;28;20032;-47
2021/11/30 11:51:55;;;;;;;0.60;0.28;;;22.70;38.60;;;;;;5022782;28;20029;-49
2021/11/30 11:54:31;;;;;;;0.52;0.10;;;22.80;38.70;;;;;;5025043;28;20052;-55
2021/11/30 11:57:09;;;;;;;0.30;0.15;;;22.80;38.70;;;;;;5018495;28;20072;-54
2021/11/30 11:59:38;;;;;;;0.85;0.30;;;22.80;38.70;;;;;;5020161;28;20112;-53
2021/11/30 12:02:17;;;;;;;0.75;0.30;;;22.70;38.70;;;;;;5024889;28;20071;-55
2021/11/30 12:04:45;;;;;;;2.33;0.30;;;22.80;38.80;;;;;;5020775;28;20029;-55
2021/11/30 12:07:11;;;;;;;0.50;0.30;;;22.70;38.80;;;;;;5023671;28;20033;-54
2021/11/30 12:09:37;;;;;;;0.70;0.20;;;22.70;38.80;;;;;;5017782;28;20032;-51
2021/11/30 12:12:22;;;;;;;0.75;0.28;;;22.70;38.90;;;;;;5021292;28;20029;-51
2021/11/30 12:14:51;;;;;;;0.93;0.20;;;22.80;38.90;;;;;;5026995;28;20512;-55
2021/11/30 12:17:23;;;;;;;0.55;0.30;;;22.80;38.90;;;;;;5018794;28;20491;-53
2021/11/30 12:20:02;;;;;;;0.55;0.28;;;22.80;39.00;;;;;;5021157;28;20069;-51
2021/11/30 12:22:52;;;;;;;0.73;0.30;;;22.80;38.90;;;;;;5019630;28;20038;-51
2021/11/30 12:25:27;;;;;;;0.73;0.20;;;22.90;39.00;;;;;;5017500;28;20022;-53
2021/11/30 12:27:53;;;;;;;0.38;0.10;;;22.90;39.00;;;;;;5019732;28;20049;-48
2021/11/30 12:30:39;;;;;;;0.57;0.30;;;22.90;39.00;;;;;;5021752;28;20459;-50
2021/11/30 12:33:11;;;;;;;0.47;0.20;;;22.90;38.90;;;;;;5024297;28;20041;-51
2021/11/30 12:35:53;;;;;;;1.45;0.30;;;22.90;38.90;;;;;;5017459;28;20026;-52
2021/11/30 12:38:33;;;;;;;0.77;0.17;;;23.00;38.90;;;;;;5020119;28;20046;-54
2021/11/30 12:41:20;;;;;;;0.45;0.20;;;23.00;38.90;;;;;;5017987;28;20026;-51
2021/11/30 12:43:46;;;;;;;0.50;0.20;;;23.00;38.80;;;;;;5022064;28;20469;-52
2021/11/30 12:46:18;;;;;;;0.40;0.20;;;23.00;38.80;;;;;;5019737;28;20117;-49
2021/11/30 12:48:44;;;;;;;0.30;0.20;;;23.00;38.70;;;;;;5020077;28;20408;-53
2021/11/30 12:51:27;;;;;;;0.85;0.50;;;23.00;38.70;;;;;;5021236;28;20116;-53
2021/11/30 12:53:56;;;;;;;0.63;0.22;;;23.10;38.60;;;;;;5019280;28;20036;-54
2021/11/30 12:56:47;;;;;;;0.98;0.30;;;23.10;38.60;;;;;;5019620;28;20136;-55
2021/11/30 12:59:35;;;;;;;0.63;0.20;;;23.10;38.60;;;;;;5017549;28;20033;-53
2021/11/30 13:02:21;;;;;;;0.43;0.20;;;23.10;38.60;;;;;;5017329;28;20037;-50
2021/11/30 13:04:49;;;;;;;0.40;0.20;;;23.10;38.50;;;;;;5022776;28;20041;-53
2021/11/30 13:07:17;;;;;;;0.15;0.10;;;23.10;38.50;;;;;;5025035;28;20464;-49
2021/11/30 13:09:44;;;;;;;0.32;0.17;;;23.10;38.50;;;;;;5020589;28;20026;-53